createdAt,value
2023-01-20T00:00:33.166Z,25.87
2023-01-20T00:01:33.079Z,25.85
2023-01-20T00:02:33.141Z,25.85
2023-01-20T00:03:33.107Z,25.82
2023-01-20T00:04:33.040Z,25.85
2023-01-20T00:05:33.055Z,25.85
2023-01-20T08:10:51.891Z,26.77
2023-01-20T08:19:51.662Z,26.78
2023-01-20T08:21:51.642Z,26.77
2023-01-20T08:22:51.637Z,26.77
2023-01-20T08:24:51.619Z,26.79
2023-01-20T08:25:51.613Z,26.81
2023-01-20T08:26:51.612Z,26.81
2023-01-20T08:27:51.604Z,26.81
2023-01-20T08:29:51.589Z,26.77
2023-01-20T08:30:52.509Z,26.81
2023-01-20T08:31:51.688Z,26.79
2023-01-20T08:32:51.540Z,26.84
2023-01-20T08:34:51.521Z,26.87
2023-01-20T08:35:51.513Z,26.87
2023-01-20T08:37:51.506Z,26.88
2023-01-20T08:39:51.533Z,26.89
2023-01-20T08:40:51.461Z,26.88
2023-01-20T08:42:51.477Z,26.87
2023-01-20T08:44:51.470Z,26.89
2023-01-20T08:46:51.445Z,26.91
2023-01-20T08:47:51.397Z,26.92
2023-01-20T08:49:51.401Z,26.92
2023-01-20T08:50:51.390Z,26.94
2023-01-20T08:51:51.370Z,26.95
2023-01-20T08:52:51.361Z,26.95
2023-01-20T08:53:51.363Z,26.94
2023-01-20T08:54:51.347Z,26.89
2023-01-20T08:55:51.387Z,26.82
2023-01-20T08:56:52.376Z,26.82
2023-01-20T08:57:51.310Z,26.79
2023-01-20T08:58:51.309Z,26.78
2023-01-20T08:59:51.313Z,26.77
2023-01-20T09:00:51.355Z,26.75
2023-01-20T09:01:51.575Z,26.74
2023-01-20T09:02:51.478Z,26.77
2023-01-20T09:04:04.324Z,26.77
2023-01-20T09:04:51.361Z,26.75
2023-01-20T09:05:51.238Z,26.77
2023-01-20T09:06:51.234Z,26.79
2023-01-20T09:07:51.224Z,26.81
2023-01-20T09:08:51.207Z,26.78
2023-01-20T09:09:51.215Z,26.81
2023-01-20T09:10:51.192Z,26.81
2023-01-20T09:11:51.611Z,26.82
2023-01-20T09:12:51.171Z,26.81
2023-01-20T09:13:51.183Z,26.84
2023-01-20T09:14:51.365Z,26.82
2023-01-20T09:15:51.215Z,26.84
2023-01-20T09:16:51.138Z,26.84
2023-01-20T09:17:51.130Z,26.84
2023-01-20T09:18:51.364Z,26.84
2023-01-20T09:19:51.112Z,26.82
2023-01-20T09:20:51.395Z,26.82
2023-01-20T09:21:51.094Z,26.88
2023-01-20T09:22:51.090Z,26.87
2023-01-20T09:23:51.373Z,26.84
2023-01-20T09:24:51.081Z,26.87
2023-01-20T09:25:51.060Z,26.88
2023-01-20T09:26:51.048Z,26.91
2023-01-20T09:27:51.075Z,26.91
2023-01-20T09:28:51.375Z,26.91
2023-01-20T09:29:51.024Z,26.92
2023-01-20T09:30:51.081Z,26.89
2023-01-20T09:31:51.155Z,26.91
2023-01-20T09:32:50.990Z,26.92
2023-01-20T09:33:51.369Z,26.91
2023-01-20T09:34:50.977Z,26.92
2023-01-20T09:35:50.971Z,26.94
2023-01-20T09:36:51.373Z,26.92
2023-01-20T09:37:50.946Z,26.94
2023-01-20T09:38:50.936Z,26.92
2023-01-20T09:39:50.931Z,26.94
2023-01-20T09:40:50.924Z,26.94
2023-01-20T09:41:51.371Z,26.95
2023-01-20T09:43:51.411Z,26.96
2023-01-20T09:44:50.882Z,26.94
2023-01-20T09:45:50.880Z,26.98
2023-01-20T09:48:50.967Z,26.96
2023-01-20T09:53:50.932Z,26.94
2023-01-20T09:57:51.477Z,26.88
2023-01-20T10:07:50.888Z,26.81
2023-01-20T10:15:50.955Z,26.84
2023-01-20T10:19:50.888Z,26.82
2023-01-20T10:23:50.906Z,26.81
2023-01-20T10:28:50.904Z,26.84
2023-01-20T10:38:50.900Z,26.95
2023-01-20T10:42:50.900Z,27.05
2023-01-20T10:47:50.928Z,27.01
2023-01-20T10:48:50.908Z,27.01
